Time;durP1;ratioP1;P1;durP2;ratioP2;P2;SDS_P1;SDS_P2;PMS_P1;PMS_P2;Temp;Humidity;BMP_temperature;BMP_pressure;BME280_temperature;BME280_humidity;BME280_pressure;Samples;Min_cycle;Max_cycle;Signal;HPM_P1;HPM_P2
2023/05/22 00:01:09;;;;;;;596.97;563.60;;;15.90;99.90;;;;;;4967008;28;20391;-75
2023/05/22 00:03:35;;;;;;;611.90;576.95;;;15.90;99.90;;;;;;4988635;28;20046;-75
2023/05/22 00:06:01;;;;;;;602.17;567.78;;;15.90;99.90;;;;;;4990227;28;20046;-75
2023/05/22 00:08:27;;;;;;;620.08;584.08;;;15.90;99.90;;;;;;4989045;28;20482;-75
2023/05/22 00:10:53;;;;;;;619.35;584.13;;;16.00;99.90;;;;;;4990284;28;20434;-74
2023/05/22 00:13:20;;;;;;;620.75;584.53;;;16.10;99.90;;;;;;4986655;28;20074;-75
2023/05/22 00:15:45;;;;;;;617.25;582.00;;;16.10;99.90;;;;;;5005118;28;20065;-75
2023/05/22 00:18:12;;;;;;;636.90;600.25;;;16.20;99.90;;;;;;4989173;28;20062;-74
2023/05/22 00:20:39;;;;;;;641.08;603.58;;;16.20;99.90;;;;;;4989766;28;20046;-74
2023/05/22 00:23:08;;;;;;;640.90;603.92;;;16.30;99.90;;;;;;4989997;28;20410;-75
2023/05/22 00:25:35;;;;;;;617.72;581.53;;;16.30;99.90;;;;;;4989517;28;20113;-75
2023/05/22 00:28:01;;;;;;;625.70;589.53;;;16.30;99.90;;;;;;4989328;28;20375;-75
2023/05/22 00:30:26;;;;;;;612.97;577.65;;;16.30;99.90;;;;;;4989756;28;20045;-74
2023/05/22 00:32:52;;;;;;;581.58;548.60;;;16.30;99.90;;;;;;4989123;28;20346;-74
2023/05/22 00:35:18;;;;;;;558.45;527.17;;;16.30;99.90;;;;;;4988998;28;20074;-75
2023/05/22 00:37:44;;;;;;;635.95;599.30;;;16.30;99.90;;;;;;4991987;28;20413;-75
2023/05/22 00:40:11;;;;;;;619.38;583.35;;;16.30;99.90;;;;;;4989919;28;20046;-75
2023/05/22 00:42:37;;;;;;;620.85;584.78;;;16.30;99.90;;;;;;4988968;28;20495;-75
2023/05/22 00:45:05;;;;;;;592.25;558.55;;;16.30;99.90;;;;;;4989716;28;20049;-74
2023/05/22 00:47:31;;;;;;;509.20;481.80;;;16.40;99.90;;;;;;4988332;28;20173;-75
2023/05/22 00:49:57;;;;;;;522.35;493.48;;;16.40;99.90;;;;;;4989644;28;20121;-75
2023/05/22 00:52:23;;;;;;;512.22;484.63;;;16.40;99.90;;;;;;4988011;28;20038;-74
2023/05/22 00:54:52;;;;;;;484.23;457.70;;;16.40;99.90;;;;;;4988600;28;20586;-75
2023/05/22 00:57:19;;;;;;;439.67;416.67;;;16.40;99.90;;;;;;4989274;28;20042;-75
2023/05/22 00:59:45;;;;;;;405.83;385.40;;;16.40;99.90;;;;;;4988680;28;20054;-75
2023/05/22 01:02:12;;;;;;;415.38;393.75;;;16.50;99.90;;;;;;4989279;28;20399;-75
2023/05/22 01:04:38;;;;;;;417.15;395.13;;;16.50;99.90;;;;;;4988355;28;20100;-75
2023/05/22 01:07:04;;;;;;;386.92;367.10;;;16.50;99.90;;;;;;4989409;28;20521;-75
2023/05/22 01:09:30;;;;;;;435.05;412.25;;;16.50;99.90;;;;;;4988531;28;20046;-74
2023/05/22 01:12:17;;;;;;;467.25;442.67;;;16.50;99.90;;;;;;4988560;28;20065;-74
2023/05/22 01:15:02;;;;;;;426.58;404.42;;;16.50;99.90;;;;;;4989093;28;20042;-75
2023/05/22 01:17:51;;;;;;;369.75;350.65;;;16.50;99.90;;;;;;4972323;28;20516;-75
2023/05/22 01:20:39;;;;;;;347.27;329.75;;;16.50;99.90;;;;;;4971985;28;20044;-75
2023/05/22 01:23:16;;;;;;;415.48;393.65;;;16.40;99.90;;;;;;4988167;28;20406;-74
2023/05/22 01:26:02;;;;;;;439.67;416.48;;;16.50;99.90;;;;;;4987893;28;20046;-75
2023/05/22 01:29:13;;;;;;;404.08;382.85;;;16.50;99.90;;;;;;4988163;28;20380;-75
2023/05/22 01:31:41;;;;;;;348.10;330.05;;;16.50;99.90;;;;;;4984299;28;20440;-74
2023/05/22 01:34:11;;;;;;;362.35;343.33;;;16.50;99.90;;;;;;4975824;28;20086;-74
2023/05/22 01:36:38;;;;;;;390.70;370.67;;;16.50;99.90;;;;;;4988958;28;20129;-74
2023/05/22 01:39:05;;;;;;;385.02;364.63;;;16.50;99.90;;;;;;4988200;28;20046;-75
2023/05/22 01:41:35;;;;;;;331.08;314.00;;;16.50;99.90;;;;;;4971685;28;20081;-74
2023/05/22 01:44:01;;;;;;;315.02;299.23;;;16.50;99.90;;;;;;4986872;28;20513;-75
2023/05/22 01:46:27;;;;;;;316.98;300.88;;;16.40;99.90;;;;;;4987047;28;20042;-74
2023/05/22 01:48:53;;;;;;;320.10;303.63;;;16.40;99.90;;;;;;4995098;28;20441;-75
2023/05/22 01:51:22;;;;;;;309.85;294.08;;;16.40;99.90;;;;;;4987923;28;20128;-74
2023/05/22 01:54:17;;;;;;;314.48;298.50;;;16.40;99.90;;;;;;4983741;28;20141;-74
2023/05/22 01:57:18;;;;;;;299.58;284.17;;;16.40;99.90;;;;;;4987992;28;20104;-74
2023/05/22 01:59:51;;;;;;;291.92;276.58;;;16.30;99.90;;;;;;4985738;28;20054;-74
2023/05/22 02:02:18;;;;;;;309.27;293.23;;;16.30;99.90;;;;;;4987989;28;20062;-74
2023/05/22 02:05:13;;;;;;;313.17;296.75;;;16.30;99.90;;;;;;4987871;28;20047;-74
2023/05/22 02:07:41;;;;;;;300.08;284.80;;;16.30;99.90;;;;;;4982945;28;20050;-74
2023/05/22 02:10:10;;;;;;;337.85;319.88;;;16.30;99.90;;;;;;4987285;28;20134;-74
2023/05/22 02:12:36;;;;;;;322.17;305.67;;;16.20;99.90;;;;;;4987524;28;20038;-75
2023/05/22 02:15:02;;;;;;;302.65;287.20;;;16.20;99.90;;;;;;4987835;28;20049;-74
2023/05/22 02:17:28;;;;;;;339.45;321.80;;;16.20;99.90;;;;;;4971610;28;20407;-74
2023/05/22 02:19:53;;;;;;;339.13;321.23;;;16.20;99.90;;;;;;4983727;28;20058;-74
2023/05/22 02:22:19;;;;;;;379.00;358.60;;;16.20;99.90;;;;;;4985708;28;20034;-74
2023/05/22 02:24:47;;;;;;;356.27;337.02;;;16.20;99.90;;;;;;4987102;28;20045;-74
2023/05/22 02:27:13;;;;;;;347.55;328.50;;;16.10;99.90;;;;;;4986864;28;20141;-75
2023/05/22 02:29:39;;;;;;;376.00;355.58;;;16.10;99.90;;;;;;4986807;28;20124;-74
2023/05/22 02:32:05;;;;;;;366.35;346.73;;;16.10;99.90;;;;;;4987465;28;20061;-74
2023/05/22 02:34:30;;;;;;;382.02;361.15;;;16.10;99.90;;;;;;5003245;28;20373;-74
2023/05/22 02:37:02;;;;;;;350.80;331.70;;;16.10;99.90;;;;;;4972846;28;20120;-74
2023/05/22 02:39:28;;;;;;;364.70;345.02;;;16.10;99.90;;;;;;4968657;28;20047;-74
2023/05/22 02:41:54;;;;;;;370.73;349.88;;;16.10;99.90;;;;;;4986276;28;20085;-74
2023/05/22 02:44:20;;;;;;;334.30;316.38;;;16.10;99.90;;;;;;4986020;28;20035;-74
2023/05/22 02:46:46;;;;;;;331.02;313.38;;;16.10;99.90;;;;;;4986685;28;20039;-74
2023/05/22 02:49:12;;;;;;;306.88;290.70;;;16.00;99.90;;;;;;4990330;28;20092;-74
2023/05/22 02:51:38;;;;;;;311.95;295.17;;;16.00;99.90;;;;;;4986796;28;20137;-74
2023/05/22 02:54:03;;;;;;;287.98;272.27;;;16.00;99.90;;;;;;4986276;28;20121;-75
2023/05/22 02:56:29;;;;;;;299.25;283.17;;;15.90;99.90;;;;;;4987038;28;20046;-74
2023/05/22 02:58:58;;;;;;;317.08;299.80;;;15.90;99.90;;;;;;4987360;28;20042;-74
2023/05/22 03:01:25;;;;;;;314.33;297.55;;;15.90;99.90;;;;;;4985682;28;20498;-74
2023/05/22 03:03:51;;;;;;;355.02;335.88;;;15.90;99.90;;;;;;4986708;28;20057;-74
2023/05/22 03:06:17;;;;;;;354.00;335.00;;;15.90;99.90;;;;;;4986622;28;20058;-74
2023/05/22 03:08:43;;;;;;;422.25;399.10;;;15.90;99.90;;;;;;4985720;28;20573;-74
2023/05/22 03:11:09;;;;;;;349.40;330.92;;;15.90;99.90;;;;;;4986917;28;20041;-74
2023/05/22 03:13:35;;;;;;;333.02;315.20;;;15.90;99.90;;;;;;4986050;28;20042;-74
2023/05/22 03:16:01;;;;;;;285.33;270.30;;;15.90;99.90;;;;;;4987095;28;20093;-75
2023/05/22 03:18:26;;;;;;;321.48;304.27;;;15.80;99.90;;;;;;4987007;28;20517;-74
2023/05/22 03:20:52;;;;;;;333.88;315.83;;;15.80;99.90;;;;;;4970246;28;20129;-74
2023/05/22 03:23:19;;;;;;;336.88;318.13;;;15.80;99.90;;;;;;4969585;28;20042;-74
2023/05/22 03:25:50;;;;;;;345.52;327.05;;;15.80;99.90;;;;;;4985955;28;20049;-74
2023/05/22 03:28:15;;;;;;;349.33;329.88;;;15.80;99.90;;;;;;4986893;28;20384;-74
2023/05/22 03:30:41;;;;;;;358.50;339.48;;;15.80;99.90;;;;;;4986339;28;20069;-75
2023/05/22 03:33:06;;;;;;;375.25;355.08;;;15.80;99.90;;;;;;4987249;28;20077;-75
2023/05/22 03:35:32;;;;;;;345.95;327.45;;;15.70;99.90;;;;;;4985103;28;20097;-75
2023/05/22 03:37:58;;;;;;;340.60;322.50;;;15.70;99.90;;;;;;4987532;28;20058;-75
2023/05/22 03:40:23;;;;;;;373.65;353.25;;;15.80;99.90;;;;;;4967885;28;20407;-75
2023/05/22 03:42:49;;;;;;;431.98;408.13;;;15.80;99.90;;;;;;4985964;28;20470;-74
2023/05/22 03:45:15;;;;;;;504.05;474.90;;;15.70;99.90;;;;;;4985640;28;20521;-74
2023/05/22 03:47:40;;;;;;;535.50;504.88;;;15.80;99.90;;;;;;4968661;28;20046;-74
2023/05/22 03:50:06;;;;;;;538.80;508.08;;;15.80;99.90;;;;;;4992937;28;20069;-74
2023/05/22 03:52:33;;;;;;;611.00;574.83;;;15.70;99.90;;;;;;4986145;28;20066;-74
2023/05/22 03:54:59;;;;;;;638.13;600.28;;;15.70;99.90;;;;;;4986438;28;20065;-74
2023/05/22 03:57:24;;;;;;;648.13;609.75;;;15.80;99.90;;;;;;4984445;28;20510;-74
2023/05/22 03:59:50;;;;;;;647.53;608.85;;;15.80;99.90;;;;;;4970597;28;20133;-74
2023/05/22 04:02:16;;;;;;;630.92;593.38;;;15.70;99.90;;;;;;4986604;28;20412;-74
2023/05/22 04:04:45;;;;;;;658.10;618.38;;;15.70;99.90;;;;;;4983975;28;20494;-74
2023/05/22 04:07:12;;;;;;;672.42;631.88;;;15.70;99.90;;;;;;4986708;28;20081;-74
2023/05/22 04:09:39;;;;;;;609.35;573.25;;;15.80;99.90;;;;;;4985572;28;20210;-74
2023/05/22 04:12:06;;;;;;;629.03;591.58;;;15.80;99.90;;;;;;4970444;28;20383;-74
2023/05/22 04:14:31;;;;;;;638.78;600.35;;;15.80;99.90;;;;;;4975988;28;20764;-74
2023/05/22 04:16:58;;;;;;;614.53;578.25;;;15.80;99.90;;;;;;4987092;28;20133;-74
2023/05/22 04:19:26;;;;;;;597.15;561.72;;;15.80;99.90;;;;;;4967634;28;20124;-74
2023/05/22 04:21:53;;;;;;;623.55;586.08;;;15.80;99.90;;;;;;4989488;28;20077;-74
2023/05/22 04:24:21;;;;;;;611.22;574.97;;;15.80;99.90;;;;;;4989594;28;20061;-74
2023/05/22 04:26:48;;;;;;;565.72;532.40;;;15.90;99.90;;;;;;5005902;28;20053;-75
2023/05/22 04:29:13;;;;;;;574.55;540.75;;;15.90;99.90;;;;;;4988928;28;20050;-74
2023/05/22 04:31:39;;;;;;;644.63;605.65;;;15.90;99.90;;;;;;4989513;28;20038;-75
2023/05/22 04:34:05;;;;;;;593.35;558.17;;;15.90;99.90;;;;;;4990364;28;20046;-74
2023/05/22 04:36:31;;;;;;;636.70;598.47;;;15.90;99.90;;;;;;4988913;28;20120;-74
2023/05/22 04:38:59;;;;;;;598.42;563.17;;;15.90;99.90;;;;;;4974141;28;20089;-74
2023/05/22 04:41:27;;;;;;;645.40;606.92;;;15.90;99.90;;;;;;4989968;28;20046;-74
2023/05/22 04:43:53;;;;;;;658.03;618.75;;;15.90;99.90;;;;;;4988179;28;20125;-74
2023/05/22 04:46:19;;;;;;;565.45;532.20;;;15.90;99.90;;;;;;4989696;28;20121;-75
2023/05/22 04:48:46;;;;;;;466.85;440.27;;;16.00;99.90;;;;;;4993240;28;20510;-75
2023/05/22 04:51:13;;;;;;;387.48;366.52;;;16.00;99.90;;;;;;4972424;28;20121;-75
2023/05/22 04:53:39;;;;;;;387.95;367.20;;;16.00;99.90;;;;;;4989478;28;20046;-75
2023/05/22 04:56:05;;;;;;;333.63;316.25;;;16.00;99.90;;;;;;4987708;28;20046;-75
2023/05/22 04:58:31;;;;;;;320.17;303.80;;;16.00;99.90;;;;;;4989377;28;20050;-75
2023/05/22 05:00:57;;;;;;;315.88;299.25;;;16.10;99.90;;;;;;4987742;28;20224;-74
2023/05/22 05:03:24;;;;;;;273.90;259.67;;;16.20;99.90;;;;;;4989406;28;20054;-74
2023/05/22 05:05:50;;;;;;;237.95;225.45;;;16.20;99.90;;;;;;4972446;28;20053;-74
2023/05/22 05:08:16;;;;;;;232.27;219.95;;;16.20;99.90;;;;;;4988762;28;20117;-74
2023/05/22 05:10:42;;;;;;;253.75;240.93;;;16.20;99.90;;;;;;4989096;28;20609;-75
2023/05/22 05:13:08;;;;;;;191.43;181.30;;;16.20;99.90;;;;;;4987798;28;20121;-75
2023/05/22 05:15:33;;;;;;;163.63;154.48;;;16.30;99.90;;;;;;4987407;28;20046;-75
2023/05/22 05:17:59;;;;;;;197.70;187.45;;;16.30;99.90;;;;;;4988079;28;20046;-75
2023/05/22 05:20:26;;;;;;;144.75;136.60;;;16.30;99.90;;;;;;4988778;28;20077;-74
2023/05/22 05:22:52;;;;;;;144.27;136.13;;;16.30;99.90;;;;;;4987389;28;20070;-75
2023/05/22 05:25:17;;;;;;;149.00;140.23;;;16.30;99.90;;;;;;4988219;28;20089;-75
2023/05/22 05:27:43;;;;;;;155.15;146.43;;;16.30;99.90;;;;;;4984057;28;20126;-74
2023/05/22 05:30:09;;;;;;;143.70;135.52;;;16.20;99.90;;;;;;5003401;28;20038;-75
2023/05/22 05:32:35;;;;;;;140.63;132.57;;;16.20;99.90;;;;;;4988355;28;20041;-75
2023/05/22 05:35:01;;;;;;;165.32;156.52;;;16.20;99.90;;;;;;4988250;28;20487;-75
2023/05/22 05:37:26;;;;;;;164.38;155.30;;;16.20;99.90;;;;;;4988421;28;20073;-75
2023/05/22 05:39:52;;;;;;;180.05;170.32;;;16.20;99.90;;;;;;4972281;28;20049;-74
2023/05/22 05:42:17;;;;;;;258.33;245.10;;;16.20;99.90;;;;;;4988747;28;20648;-74
2023/05/22 05:44:43;;;;;;;235.75;223.68;;;16.20;99.90;;;;;;4971075;28;20046;-74
2023/05/22 05:47:09;;;;;;;242.77;230.65;;;16.30;99.90;;;;;;4970548;28;20072;-75
2023/05/22 05:49:34;;;;;;;224.13;212.75;;;16.30;99.90;;;;;;4994606;28;20121;-74
2023/05/22 05:52:00;;;;;;;370.02;351.17;;;16.20;99.90;;;;;;4984092;28;20042;-74
2023/05/22 05:54:26;;;;;;;307.10;291.80;;;16.30;99.90;;;;;;4987053;28;20042;-74
2023/05/22 05:56:52;;;;;;;291.27;276.85;;;16.30;99.90;;;;;;4988044;28;20050;-74
2023/05/22 05:59:17;;;;;;;352.92;335.63;;;16.40;99.90;;;;;;4987532;28;20042;-74
2023/05/22 06:01:47;;;;;;;280.20;266.42;;;16.40;99.90;;;;;;4970453;28;20070;-74
2023/05/22 06:04:13;;;;;;;284.42;270.23;;;16.50;99.90;;;;;;4987644;28;20073;-74
2023/05/22 06:06:38;;;;;;;221.05;210.27;;;16.50;99.90;;;;;;4986949;28;20038;-75
2023/05/22 06:09:08;;;;;;;161.77;153.38;;;16.60;99.90;;;;;;4985891;28;20450;-75
2023/05/22 06:11:34;;;;;;;143.15;135.50;;;16.60;99.90;;;;;;4970131;28;20046;-75
2023/05/22 06:14:01;;;;;;;135.68;128.63;;;16.60;99.90;;;;;;4986357;28;20052;-75
2023/05/22 06:16:28;;;;;;;112.43;106.22;;;16.60;99.90;;;;;;4985856;28;20080;-75
2023/05/22 06:18:55;;;;;;;101.03;95.22;;;16.60;99.90;;;;;;4985566;28;20046;-75
2023/05/22 06:21:21;;;;;;;127.85;120.90;;;16.70;99.90;;;;;;4986135;28;20053;-75
2023/05/22 06:23:48;;;;;;;153.93;146.18;;;16.70;99.90;;;;;;4985619;28;20050;-74
2023/05/22 06:26:14;;;;;;;107.28;101.07;;;16.70;99.90;;;;;;4986423;28;20431;-73
2023/05/22 06:28:40;;;;;;;180.60;170.85;;;16.60;99.90;;;;;;4970359;28;20039;-75
2023/05/22 06:31:08;;;;;;;106.93;101.03;;;16.60;99.90;;;;;;4985556;28;20380;-75
2023/05/22 06:33:35;;;;;;;184.68;173.50;;;16.60;99.90;;;;;;4985745;28;20121;-74
2023/05/22 06:36:03;;;;;;;119.90;113.60;;;16.60;99.90;;;;;;4986090;28;20112;-74
2023/05/22 06:38:30;;;;;;;153.10;145.07;;;16.60;99.90;;;;;;4984848;28;20399;-74
2023/05/22 06:40:55;;;;;;;137.57;130.15;;;16.60;99.90;;;;;;4985567;28;20097;-74
2023/05/22 06:43:21;;;;;;;120.00;113.30;;;16.70;99.90;;;;;;4967620;28;20034;-74
2023/05/22 06:45:47;;;;;;;144.95;137.57;;;16.60;99.90;;;;;;4985556;28;20046;-73
2023/05/22 06:48:12;;;;;;;133.05;125.88;;;16.60;99.90;;;;;;4984905;28;20038;-74
2023/05/22 06:50:38;;;;;;;132.98;126.25;;;16.60;99.90;;;;;;4985143;28;20483;-74
2023/05/22 06:53:03;;;;;;;157.18;148.82;;;16.50;99.90;;;;;;4985751;28;20078;-74
2023/05/22 06:55:29;;;;;;;164.07;155.40;;;16.50;99.90;;;;;;4985215;28;20540;-74
2023/05/22 06:57:55;;;;;;;112.38;106.15;;;16.40;99.90;;;;;;4986108;28;20069;-75
2023/05/22 07:00:20;;;;;;;115.25;108.72;;;16.40;99.90;;;;;;4987042;28;20123;-74
2023/05/22 07:02:46;;;;;;;149.23;141.43;;;16.40;99.90;;;;;;4986271;28;20108;-75
2023/05/22 07:05:11;;;;;;;157.23;148.77;;;16.40;99.90;;;;;;4986471;28;20058;-74
2023/05/22 07:07:37;;;;;;;195.95;186.88;;;16.40;99.90;;;;;;4986690;28;20046;-74
2023/05/22 07:10:03;;;;;;;190.55;180.93;;;16.40;99.90;;;;;;4970534;28;20125;-73
2023/05/22 07:12:29;;;;;;;169.43;160.25;;;16.50;99.90;;;;;;4986900;28;20041;-74
2023/05/22 07:14:55;;;;;;;116.25;110.45;;;16.50;99.90;;;;;;4985822;28;20129;-74
2023/05/22 07:17:21;;;;;;;102.05;96.78;;;16.50;99.90;;;;;;4986624;28;20081;-74
2023/05/22 07:19:47;;;;;;;166.18;158.15;;;16.50;99.90;;;;;;4986180;28;20046;-74
2023/05/22 07:22:14;;;;;;;157.90;150.10;;;16.50;99.90;;;;;;4985729;28;20490;-74
2023/05/22 07:24:39;;;;;;;133.75;126.80;;;16.50;99.90;;;;;;4985927;28;20042;-74
2023/05/22 07:27:05;;;;;;;123.72;117.72;;;16.60;99.90;;;;;;4970222;28;20038;-74
2023/05/22 07:29:31;;;;;;;115.60;110.07;;;16.60;99.90;;;;;;4982641;28;20034;-74
2023/05/22 07:31:57;;;;;;;127.45;121.25;;;16.60;99.90;;;;;;4983663;28;20097;-75
2023/05/22 07:34:28;;;;;;;99.13;94.22;;;16.50;99.90;;;;;;4981265;28;20487;-74
2023/05/22 07:36:54;;;;;;;100.90;95.82;;;16.60;99.90;;;;;;4970608;28;20069;-74
2023/05/22 07:39:19;;;;;;;87.15;82.80;;;16.60;99.90;;;;;;4970538;28;20076;-74
2023/05/22 07:41:52;;;;;;;88.55;84.18;;;16.60;99.90;;;;;;4967518;28;21311;-74
2023/05/22 07:44:18;;;;;;;98.60;93.78;;;16.60;99.90;;;;;;4970645;28;20081;-74
2023/05/22 07:46:44;;;;;;;87.82;83.43;;;16.70;99.90;;;;;;4986386;28;20070;-75
2023/05/22 07:49:09;;;;;;;111.97;106.57;;;16.70;99.90;;;;;;4991319;28;20034;-74
2023/05/22 07:51:35;;;;;;;123.68;117.75;;;16.70;99.90;;;;;;4987090;28;20081;-75
2023/05/22 07:54:01;;;;;;;124.63;118.82;;;16.60;99.90;;;;;;4989386;28;20038;-74
2023/05/22 07:56:26;;;;;;;113.55;107.97;;;16.60;99.90;;;;;;4990223;28;20042;-74
2023/05/22 07:58:53;;;;;;;104.20;99.10;;;16.60;99.90;;;;;;5005213;28;20574;-75
2023/05/22 08:01:18;;;;;;;91.80;87.28;;;16.60;99.90;;;;;;4989581;28;20085;-74
2023/05/22 08:03:44;;;;;;;131.48;125.15;;;16.60;99.90;;;;;;4989375;28;20108;-75
2023/05/22 08:06:09;;;;;;;93.68;89.03;;;16.60;99.90;;;;;;4987898;28;20559;-75
2023/05/22 08:08:35;;;;;;;102.30;97.07;;;16.70;99.90;;;;;;4973719;28;20041;-75
2023/05/22 08:11:01;;;;;;;95.97;90.85;;;16.60;99.90;;;;;;4990182;28;20077;-74
2023/05/22 08:13:27;;;;;;;92.85;88.20;;;16.60;99.90;;;;;;4981699;28;20050;-75
2023/05/22 08:15:52;;;;;;;111.35;105.85;;;16.70;99.90;;;;;;4988561;28;20081;-74
2023/05/22 08:18:18;;;;;;;144.77;137.95;;;16.70;99.90;;;;;;4987945;28;20042;-73
2023/05/22 08:20:45;;;;;;;156.38;148.75;;;16.70;99.90;;;;;;4990106;28;20571;-74
2023/05/22 08:23:11;;;;;;;92.75;87.93;;;16.70;99.90;;;;;;4989191;28;20046;-74
2023/05/22 08:25:36;;;;;;;134.82;128.23;;;16.70;99.90;;;;;;4988155;28;20050;-75
2023/05/22 08:28:02;;;;;;;123.30;117.20;;;16.70;99.90;;;;;;4989598;28;20449;-73
2023/05/22 08:30:28;;;;;;;224.88;213.95;;;16.60;99.90;;;;;;4986512;28;20149;-73
2023/05/22 08:32:53;;;;;;;206.15;193.70;;;16.60;99.90;;;;;;4987415;28;20077;-75
2023/05/22 08:35:19;;;;;;;114.95;109.40;;;16.60;99.90;;;;;;4989899;28;20042;-74
2023/05/22 08:37:44;;;;;;;107.60;102.38;;;16.60;99.90;;;;;;4989344;28;20046;-75
2023/05/22 08:40:14;;;;;;;125.70;119.43;;;16.60;99.90;;;;;;4988961;28;20103;-74
2023/05/22 08:42:41;;;;;;;91.18;86.40;;;16.60;99.90;;;;;;4989220;28;20042;-75
2023/05/22 08:45:07;;;;;;;92.43;87.65;;;16.60;99.90;;;;;;4969712;28;20042;-74
2023/05/22 08:47:36;;;;;;;85.45;80.65;;;16.60;99.90;;;;;;4989254;28;20037;-74
2023/05/22 08:50:03;;;;;;;80.07;75.68;;;16.60;99.90;;;;;;4973373;28;20139;-74
2023/05/22 08:52:37;;;;;;;84.50;79.97;;;16.60;99.90;;;;;;4975971;28;20046;-75
2023/05/22 08:55:04;;;;;;;96.70;91.38;;;16.70;99.90;;;;;;4986167;28;20398;-74
2023/05/22 08:57:31;;;;;;;80.88;76.30;;;16.70;99.90;;;;;;4971924;28;20049;-75
2023/05/22 08:59:57;;;;;;;89.40;84.50;;;16.80;99.90;;;;;;4989344;28;20038;-75
2023/05/22 09:02:23;;;;;;;113.72;108.20;;;16.90;99.90;;;;;;4987986;28;20130;-75
2023/05/22 09:04:48;;;;;;;106.40;101.05;;;17.00;99.90;;;;;;4988881;28;20038;-74
2023/05/22 09:07:14;;;;;;;347.20;330.77;;;17.10;99.90;;;;;;4989650;28;20041;-74
2023/05/22 09:09:41;;;;;;;393.85;374.60;;;17.20;99.90;;;;;;4988464;28;20093;-74
2023/05/22 09:12:08;;;;;;;370.85;352.98;;;17.20;99.90;;;;;;4988133;28;20169;-74
2023/05/22 09:14:41;;;;;;;307.08;292.75;;;17.30;99.90;;;;;;4988994;28;20399;-74
2023/05/22 09:17:09;;;;;;;395.65;376.52;;;17.40;99.90;;;;;;4989178;28;20108;-75
2023/05/22 09:19:35;;;;;;;385.30;366.40;;;17.50;99.90;;;;;;4987138;28;20465;-75
2023/05/22 09:22:03;;;;;;;381.88;363.25;;;17.60;99.90;;;;;;4972595;28;20042;-75
2023/05/22 09:24:28;;;;;;;328.77;313.42;;;17.80;99.90;;;;;;4988794;28;20054;-74
2023/05/22 09:26:54;;;;;;;280.75;267.33;;;18.10;99.90;;;;;;4988501;28;20038;-75
2023/05/22 09:29:21;;;;;;;91.70;86.45;;;18.20;99.90;;;;;;4989557;28;20097;-74
2023/05/22 09:31:47;;;;;;;72.72;68.57;;;18.50;99.90;;;;;;4987966;28;20049;-75
2023/05/22 09:34:16;;;;;;;67.75;64.30;;;18.60;99.90;;;;;;4987786;28;20050;-75
2023/05/22 09:36:42;;;;;;;77.00;72.70;;;18.70;99.90;;;;;;4970997;28;20149;-75
2023/05/22 09:39:08;;;;;;;77.40;72.82;;;18.90;99.90;;;;;;4988705;28;20476;-75
2023/05/22 09:41:39;;;;;;;76.38;72.10;;;19.00;99.90;;;;;;4988195;28;20080;-75
2023/05/22 09:44:14;;;;;;;80.47;76.18;;;19.10;99.90;;;;;;4962044;28;20042;-74
2023/05/22 09:46:42;;;;;;;93.85;89.03;;;19.30;99.90;;;;;;4987916;28;20042;-75
2023/05/22 09:49:08;;;;;;;143.60;136.75;;;19.40;99.90;;;;;;4991010;28;20074;-74
2023/05/22 09:51:36;;;;;;;110.38;104.90;;;19.60;99.90;;;;;;5004354;28;20072;-75
2023/05/22 09:54:05;;;;;;;126.55;120.18;;;19.60;99.90;;;;;;4986720;28;20050;-74
2023/05/22 09:56:33;;;;;;;115.90;110.00;;;19.70;99.90;;;;;;4987576;28;20117;-75
2023/05/22 09:58:59;;;;;;;96.32;91.55;;;19.60;99.90;;;;;;4986450;28;20053;-75
2023/05/22 10:01:26;;;;;;;138.57;132.05;;;19.70;99.90;;;;;;4970884;28;20054;-76
2023/05/22 10:03:54;;;;;;;152.40;145.25;;;20.00;99.90;;;;;;4988055;28;20046;-75
2023/05/22 10:06:22;;;;;;;210.90;201.32;;;20.20;99.90;;;;;;4986318;28;20045;-75
2023/05/22 10:08:57;;;;;;;182.65;174.07;;;20.30;99.90;;;;;;4987188;28;20467;-75
2023/05/22 10:11:24;;;;;;;318.02;303.27;;;20.50;99.90;;;;;;5002135;28;20030;-75
2023/05/22 10:13:50;;;;;;;306.48;292.27;;;20.90;99.90;;;;;;4987522;28;20046;-75
2023/05/22 10:16:17;;;;;;;180.55;172.13;;;21.30;99.90;;;;;;4984759;28;20051;-75
2023/05/22 10:18:47;;;;;;;270.38;257.88;;;21.40;99.90;;;;;;4987798;28;20038;-76
2023/05/22 10:21:15;;;;;;;110.13;104.88;;;21.50;99.90;;;;;;4985910;28;20149;-75
2023/05/22 10:23:41;;;;;;;103.28;97.88;;;21.50;99.90;;;;;;4987483;28;20050;-75
2023/05/22 10:26:08;;;;;;;133.55;127.18;;;21.40;99.90;;;;;;4986191;28;20064;-75
2023/05/22 10:28:46;;;;;;;127.97;121.80;;;21.40;99.90;;;;;;4987479;28;20109;-75
2023/05/22 10:31:41;;;;;;;198.18;188.70;;;21.50;99.90;;;;;;4987395;28;20124;-76
2023/05/22 10:34:11;;;;;;;51.35;48.20;;;21.60;99.90;;;;;;4983520;28;20042;-75
2023/05/22 10:37:35;;;;;;;129.15;122.72;;;21.80;99.90;;;;;;4986587;28;20086;-76
2023/05/22 10:40:06;;;;;;;120.15;114.03;;;21.90;99.90;;;;;;4943941;28;20058;-75
2023/05/22 10:42:32;;;;;;;57.97;54.55;;;22.10;99.90;;;;;;4986489;28;20089;-75
2023/05/22 10:45:02;;;;;;;53.42;50.25;;;22.40;99.90;;;;;;4971390;28;20053;-74
2023/05/22 10:47:28;;;;;;;44.78;41.88;;;22.70;99.90;;;;;;4985254;28;20038;-76
2023/05/22 10:50:10;;;;;;;65.03;61.17;;;22.80;99.90;;;;;;4993652;28;20556;-75
2023/05/22 10:52:39;;;;;;;97.95;92.40;;;22.60;99.90;;;;;;4986881;28;20042;-75
2023/05/22 10:55:09;;;;;;;81.70;76.97;;;22.50;99.90;;;;;;4987144;28;20153;-74
2023/05/22 10:57:38;;;;;;;65.03;61.38;;;22.70;99.90;;;;;;4985928;28;20435;-75
2023/05/22 11:00:09;;;;;;;113.22;107.47;;;23.00;99.90;;;;;;4986556;28;20038;-75
2023/05/22 11:02:43;;;;;;;225.45;214.95;;;23.30;99.90;;;;;;4970041;28;20092;-75
2023/05/22 11:05:18;;;;;;;58.50;54.00;;;23.80;99.90;;;;;;4987316;28;20052;-75
2023/05/22 11:07:44;;;;;;;45.95;42.80;;;24.10;99.90;;;;;;4985445;28;20430;-75
2023/05/22 11:10:10;;;;;;;59.85;56.35;;;24.20;99.90;;;;;;4986255;28;20050;-75
2023/05/22 11:12:36;;;;;;;40.70;37.58;;;23.90;99.90;;;;;;4986903;28;20050;-75
2023/05/22 11:15:07;;;;;;;53.63;50.15;;;23.70;99.90;;;;;;4985717;28;20081;-76
2023/05/22 11:17:41;;;;;;;41.22;38.22;;;23.60;99.90;;;;;;4970824;28;20054;-75
2023/05/22 11:20:21;;;;;;;37.92;35.17;;;23.30;99.90;;;;;;4985768;28;20117;-75
2023/05/22 11:22:55;;;;;;;44.08;40.88;;;23.30;99.90;;;;;;4981418;28;20049;-75
2023/05/22 11:25:21;;;;;;;49.95;46.63;;;23.60;99.90;;;;;;4986667;28;20078;-75
2023/05/22 11:27:47;;;;;;;37.60;34.50;;;24.00;99.90;;;;;;4989050;28;20058;-75
2023/05/22 11:30:14;;;;;;;41.25;38.05;;;24.10;99.90;;;;;;4989069;28;20470;-75
2023/05/22 11:32:46;;;;;;;40.08;37.17;;;24.20;99.90;;;;;;4990749;28;20042;-75
2023/05/22 11:35:19;;;;;;;48.85;45.47;;;24.40;99.90;;;;;;4991359;28;20458;-75
2023/05/22 11:37:46;;;;;;;82.88;77.75;;;24.40;99.90;;;;;;4974812;28;20038;-75
2023/05/22 11:40:25;;;;;;;53.17;49.65;;;24.70;99.90;;;;;;4989200;28;20046;-75
2023/05/22 11:42:55;;;;;;;52.22;48.72;;;24.70;99.90;;;;;;4991147;28;20046;-75
2023/05/22 11:45:20;;;;;;;79.60;75.18;;;24.90;99.90;;;;;;4989229;28;20108;-75
2023/05/22 11:47:47;;;;;;;54.90;51.30;;;25.00;99.90;;;;;;4974665;28;20042;-75
2023/05/22 11:50:13;;;;;;;44.83;41.58;;;24.90;99.90;;;;;;4996960;28;20038;-75
2023/05/22 11:52:41;;;;;;;56.72;53.22;;;24.70;99.90;;;;;;4989512;28;20038;-75
2023/05/22 11:55:10;;;;;;;75.50;71.25;;;24.70;99.90;;;;;;4990808;28;20057;-75
2023/05/22 11:57:37;;;;;;;57.00;53.53;;;24.70;99.90;;;;;;4988678;28;20042;-75
2023/05/22 12:00:05;;;;;;;55.97;51.92;;;24.70;99.90;;;;;;4989442;28;20074;-75
2023/05/22 12:02:31;;;;;;;67.05;63.33;;;24.70;99.90;;;;;;4989123;28;20061;-75
2023/05/22 12:04:57;;;;;;;79.25;74.97;;;24.80;99.90;;;;;;4990184;28;20065;-75
2023/05/22 12:07:24;;;;;;;108.57;103.10;;;25.00;99.90;;;;;;4971686;28;20046;-75
2023/05/22 12:09:50;;;;;;;76.13;71.95;;;25.10;99.90;;;;;;4980089;28;20034;-75
2023/05/22 12:12:17;;;;;;;135.60;128.80;;;25.10;99.90;;;;;;4990211;28;20039;-75
2023/05/22 12:14:47;;;;;;;74.75;70.40;;;25.00;99.90;;;;;;4990252;28;20092;-75
2023/05/22 12:17:13;;;;;;;98.50;93.05;;;25.10;99.90;;;;;;4988990;28;20081;-75